Weather observations for the past three days for
Wilmington International Airport
Imperial (Metric)
Date Time (edt) Wind (mph) Vis. (mi.) Weather Sky Cond. Temperature (ºF) Relative Humidity Wind Chill (°F) Heat Index (°F) Pressure Precipitation (in)
Air Dwpt 6 hour altimeter (in) sea level (mb) 1 hr 3 hr 6 hr
Max. Min.
04 15:53 W 8 10.00 A Few Clouds FEW050 93.9 75 54% 106 29.96 1014.5
04 14:53 W 7 10.00 Mostly Cloudy BKN045 93.9 75 54% 106 29.98 1015.2
04 13:53 W 8 10.00 Mostly Cloudy BKN041 BKN050 91.9 75 91.9 79 58% 103 30 1015.8
04 12:53 SW 8 10.00 A Few Clouds FEW037 90 75 62% 100 30.01 1016.3
04 11:53 SW 6 10.00 A Few Clouds FEW032 90 75 62% 100 30.04 1017.1
04 10:53 SW 8 10.00 Fair CLR 87.1 75.9 70% 98 30.04 1017.3
04 09:53 W 8 10.00 A Few Clouds FEW019 86 78.1 77% 98 30.03 1016.8
04 08:53 W 6 10.00 Fair CLR 84 78.1 82% 95 30.03 1016.9
04 07:53 Calm 10.00 Fair CLR 79 77 79 73.9 94% 83 30.03 1016.8
04 06:53 Calm 10.00 A Few Clouds FEW015 75 75 100% 72 30.02 1016.5
04 05:53 Calm 10.00 Fair CLR 75 75 100% 72 30.01 1016.1
04 04:53 Calm 10.00 Fair CLR 75.9 75 97% 75 30 1015.8
04 03:53 Calm 10.00 Fair CLR 75.9 75 97% 75 30 1016.0
04 02:53 Calm 10.00 Fair CLR 77 75.9 96% 78 30.01 1016.3
04 01:53 S 3 10.00 Fair CLR 78.1 75.9 82.9 78.1 93% 81 30.03 1016.8
04 00:53 Calm 10.00 Fair CLR 79 77 94% 83 30.05 1017.4
03 23:53 Calm 10.00 Fair CLR 79 77 94% 83 30.05 1017.6
03 22:53 S 3 10.00 Fair CLR 79 77 94% 83 30.05 1017.7
03 21:53 S 3 10.00 Fair CLR 81 77 88% 88 30.05 1017.6
03 20:53 S 6 10.00 Fair CLR 82 77 85% 90 30.02 1016.7
03 19:53 S 9 10.00 Fair CLR 82.9 77 91 82.9 82% 92 30.01 1016.1
03 18:53 S 13 10.00 A Few Clouds FEW024 84.9 73.9 70% 92 30.01 1016.3
03 17:53 S 13 10.00 Fair CLR 87.1 77 72% 99 30.02 1016.4
03 16:53 S 9 10.00 Fair CLR 89.1 75 63% 99 30.02 1016.4
03 15:53 S 12 10.00 Fair CLR 89.1 72 57% 96 30.03 1016.9
03 14:53 Vrbl 7 10.00 Fair CLR 90 72 56% 97 30.04 1017.3
03 13:53 SE 9 10.00 Fair CLR 90 72 91 78.1 56% 97 30.05 1017.7
03 12:53 SE 7 10.00 Fair CLR 91 73 56% 100 30.06 1017.9
03 11:53 Vrbl 3 10.00 Partly Cloudy SCT046 90 75 62% 100 30.07 1018.3
03 10:53 Vrbl 3 10.00 Fair CLR 87.1 75.9 70% 98 30.08 1018.5
03 09:53 SW 5 10.00 Fair CLR 84.9 75.9 75% 94 30.07 1018.3
03 08:53 W 3 10.00 Fair CLR 82.9 78.1 85% 93 30.07 1018.3
03 07:53 Calm 10.00 Fair CLR 78.1 75.9 78.1 75 93% 81 30.07 1018.3
03 06:53 Calm 10.00 Fair CLR 75 73.9 96% 73 30.05 1017.7
03 05:53 Calm 10.00 Fair CLR 75 75 100% 72 30.04 1017.3
03 04:53 Calm 10.00 Fair CLR 75.9 75 97% 75 30.03 1017.0
03 03:53 Calm 10.00 Fair CLR 75.9 75 97% 75 30.03 1016.9
03 02:53 Calm 10.00 Fair CLR 77 75.9 96% 78 30.02 1016.6
03 01:53 Calm 10.00 Fair CLR 78.1 75.9 84 77 93% 81 30.03 1016.8
03 00:53 Calm 10.00 Fair CLR 79 75.9 90% 83 30.03 1016.9
02 23:53 Calm 10.00 Partly Cloudy SCT060 81 75.9 85% 87 30.04 1017.1
02 22:53 S 5 10.00 Fair CLR 81 77 88% 88 30.03 1017.0
02 21:53 SW 5 10.00 A Few Clouds FEW060 81 75.9 85% 87 30.06 1017.9
02 20:53 S 5 10.00 Fair CLR 82.9 75 77% 90 30.04 1017.3
02 19:53 S 3 10.00 Fair CLR 84 73.9 95 84 72% 91 30.03 1016.9
02 18:53 S 6 10.00 Fair CLR 87.1 72 61% 94 30.02 1016.7
02 17:53 S 9 10.00 Fair CLR 90 73.9 59% 99 30.01 1016.3
02 16:53 S 12 10.00 Fair CLR 91 73.9 57% 101 30.02 1016.5
02 15:53 SE 8 10.00 Fair CLR 91.9 75.9 60% 104 30.03 1017.0
02 14:53 SE 10 10.00 Fair CLR 93 75.9 58% 106 30.04 1017.2
02 13:53 Calm 10.00 Fair CLR 93 73.9 93 78.1 54% 103 30.05 1017.6
02 12:53 Calm 10.00 Fair CLR 91 73 56% 100 30.06 1017.8
02 11:53 W 7 10.00 Fair CLR 90 73 58% 98 30.07 1018.1
02 10:53 W 5 10.00 Fair CLR 88 72 59% 95 30.07 1018.2
02 09:53 W 8 10.00 Fair CLR 86 73 65% 93 30.07 1018.1
02 08:53 W 5 10.00 Fair CLR 82 75.9 82% 89 30.08 1018.7
02 07:53 SW 7 10.00 Fair CLR 78.1 75.9 78.1 75 93% 81 30.09 1018.7
02 06:53 SW 5 10.00 Fair CLR 75.9 75 97% 75 30.07 1018.4
02 05:53 Calm 10.00 Fair CLR 75.9 75 97% 75 30.06 1018.0
02 04:53 Calm 10.00 Fair CLR 75 73.9 96% 73 30.05 1017.6
02 03:53 Calm 10.00 Fair CLR 75.9 75.9 100% 75 30.05 1017.6
02 02:53 Calm 10.00 Fair CLR 75.9 75 97% 75 30.06 1017.7
02 01:53 Calm 10.00 Fair CLR 78.1 75.9 82 78.1 93% 81 30.06 1018.0
02 00:53 SW 5 10.00 Fair CLR 78.1 75.9 93% 81 30.05 1017.7
01 23:53 S 5 10.00 Fair CLR 78.1 75.9 93% 81 30.05 1017.4
01 22:53 Calm 10.00 Fair CLR 79 75.9 90% 83 30.04 1017.3
01 21:53 S 3 10.00 Fair CLR 79 75 88% 83 30.04 1017.3
01 20:53 S 3 10.00 Fair CLR 80.1 75 85% 85 30.04 1017.3
01 19:53 S 5 10.00 Fair CLR 82 73.9 91.9 81 77% 88 30.04 1017.1
01 18:53 S 7 10.00 Fair CLR 84 73 70% 90 30.04 1017.1
01 17:53 S 8 10.00 Fair CLR 87.1 71.1 59% 93 30.04 1017.0
01 16:53 S 9 10.00 Fair CLR 88 73 61% 96 30.04 1017.1
Date Time (edt) Wind (mph) Vis. (mi.) Weather Sky Cond. Air Dwpt Max. Min. Relative Humidity Wind Chill (°F) Heat Index (°F) altimeter (in) sea level (mb) 1 hr 3 hr 6 hr
6 hour
Temperature (ºF) Pressure Precipitation (in)